Time;durP1;ratioP1;P1;durP2;ratioP2;P2;SDS_P1;SDS_P2;PMS_P1;PMS_P2;Temp;Humidity;BMP_temperature;BMP_pressure;BME280_temperature;BME280_humidity;BME280_pressure;Samples;Min_cycle;Max_cycle;Signal;HPM_P1;HPM_P2
2023/02/27 00:00:17;;;;;;;;;;;;;;;13.38;32.88;101619.73;1994479;72;20372;-56
2023/02/27 00:02:46;;;;;;;;;;;;;;;13.41;32.76;101611.69;1994523;72;20356;-56
2023/02/27 00:05:14;;;;;;;;;;;;;;;13.46;32.22;101614.15;1970637;72;20119;-56
2023/02/27 00:07:42;;;;;;;;;;;;;;;13.50;32.27;101611.35;1994380;72;20156;-55
2023/02/27 00:10:11;;;;;;;;;;;;;;;13.53;31.91;101604.22;1988528;72;20110;-56
2023/02/27 00:12:39;;;;;;;;;;;;;;;13.56;31.44;101604.11;1963294;72;20393;-55
2023/02/27 00:15:08;;;;;;;;;;;;;;;13.60;31.76;101592.48;1965844;73;20146;-52
2023/02/27 00:17:36;;;;;;;;;;;;;;;13.65;31.65;101593.17;1965833;72;20108;-49
2023/02/27 00:20:04;;;;;;;;;;;;;;;13.68;31.73;101594.36;1965802;73;20111;-50
2023/02/27 00:22:32;;;;;;;;;;;;;;;13.66;31.65;101590.91;1965397;73;20154;-52
2023/02/27 00:25:00;;;;;;;;;;;;;;;13.72;31.26;101589.34;1966075;71;20139;-51
2023/02/27 00:27:28;;;;;;;;;;;;;;;13.78;30.75;101592.24;1965194;73;20116;-49
2023/02/27 00:29:55;;;;;;;;;;;;;;;13.78;31.20;101593.56;1965201;73;20112;-50
2023/02/27 00:32:23;;;;;;;;;;;;;;;13.81;30.25;101595.60;1965211;73;20146;-52
2023/02/27 00:34:51;;;;;;;;;;;;;;;13.88;30.94;101597.56;1964858;73;20138;-53
2023/02/27 00:37:19;;;;;;;;;;;;;;;13.87;31.12;101591.41;1965664;73;20115;-53
2023/02/27 00:39:47;;;;;;;;;;;;;;;13.85;31.25;101601.20;1965912;73;20112;-49
2023/02/27 00:42:15;;;;;;;;;;;;;;;13.82;31.46;101598.66;1965855;73;20159;-48
2023/02/27 00:44:43;;;;;;;;;;;;;;;13.77;31.76;101595.80;1965771;72;20112;-50
2023/02/27 00:47:10;;;;;;;;;;;;;;;13.69;31.89;101594.77;1965850;73;20146;-52
2023/02/27 00:49:39;;;;;;;;;;;;;;;13.63;31.77;101601.17;1965876;73;20099;-50
2023/02/27 00:52:08;;;;;;;;;;;;;;;13.59;31.89;101602.65;1965822;73;20111;-51
2023/02/27 00:54:36;;;;;;;;;;;;;;;13.51;32.30;101602.94;1965862;73;20108;-47
2023/02/27 00:57:04;;;;;;;;;;;;;;;13.50;32.08;101612.67;1936208;73;20122;-48
2023/02/27 00:59:32;;;;;;;;;;;;;;;13.51;32.14;101614.38;1929091;74;20114;-48
2023/02/27 01:01:59;;;;;;;;;;;;;;;13.50;32.35;101614.44;1947430;73;20116;-49
2023/02/27 01:04:28;;;;;;;;;;;;;;;13.49;32.21;101610.08;1965735;73;20138;-49
2023/02/27 01:06:56;;;;;;;;;;;;;;;13.48;32.35;101609.66;1965846;73;20120;-50
2023/02/27 01:09:28;;;;;;;;;;;;;;;13.45;32.55;101613.30;1932150;73;20119;-49
2023/02/27 01:11:53;;;;;;;;;;;;;;;13.42;32.68;101611.22;1921366;74;20153;-47
2023/02/27 01:14:21;;;;;;;;;;;;;;;13.34;32.87;101611.52;1969640;72;20145;-48
2023/02/27 01:16:49;;;;;;;;;;;;;;;13.21;33.07;101604.45;1980375;72;20380;-48
2023/02/27 01:19:17;;;;;;;;;;;;;;;13.13;33.21;101612.67;1961659;72;20112;-47
2023/02/27 01:21:44;;;;;;;;;;;;;;;13.05;33.35;101618.66;1954857;73;20164;-48
2023/02/27 01:24:12;;;;;;;;;;;;;;;12.98;33.48;101613.19;1952587;72;20382;-51
2023/02/27 01:26:41;;;;;;;;;;;;;;;12.98;33.57;101609.69;1945346;74;20113;-48
2023/02/27 01:29:09;;;;;;;;;;;;;;;12.95;33.62;101612.00;1944555;73;20528;-49
2023/02/27 01:31:39;;;;;;;;;;;;;;;12.92;33.75;101602.84;1943634;74;20383;-48
2023/02/27 01:34:06;;;;;;;;;;;;;;;12.85;33.83;101617.19;1943603;74;20147;-49
2023/02/27 01:36:34;;;;;;;;;;;;;;;12.77;33.93;101616.59;1958523;72;20098;-49
2023/02/27 01:39:02;;;;;;;;;;;;;;;12.60;34.10;101619.78;1972531;72;20121;-50
2023/02/27 01:41:30;;;;;;;;;;;;;;;12.49;34.26;101614.88;1943698;74;20101;-47
2023/02/27 01:44:02;;;;;;;;;;;;;;;12.33;34.41;101615.83;1943531;74;20116;-48
2023/02/27 01:46:31;;;;;;;;;;;;;;;12.22;34.51;101616.17;1943683;74;20113;-48
2023/02/27 01:49:00;;;;;;;;;;;;;;;12.06;34.59;101614.92;1943655;74;20115;-50
2023/02/27 01:51:29;;;;;;;;;;;;;;;11.86;34.79;101622.98;1943874;73;20116;-48
2023/02/27 01:53:57;;;;;;;;;;;;;;;11.73;34.91;101625.55;1943667;74;20113;-47
2023/02/27 01:56:27;;;;;;;;;;;;;;;11.57;35.04;101619.42;1943593;74;20176;-47
2023/02/27 01:58:56;;;;;;;;;;;;;;;11.54;35.20;101637.97;1943652;74;20112;-48
2023/02/27 02:01:25;;;;;;;;;;;;;;;11.58;35.29;101636.99;1952678;72;20120;-49
2023/02/27 02:04:00;;;;;;;;;;;;;;;11.59;35.33;101637.84;1951227;74;20116;-48
2023/02/27 02:06:31;;;;;;;;;;;;;;;11.59;35.40;101634.75;1950880;74;20113;-48
2023/02/27 02:09:00;;;;;;;;;;;;;;;11.78;35.14;101639.05;1951101;74;20116;-48
2023/02/27 02:11:29;;;;;;;;;;;;;;;11.98;34.89;101643.73;1950665;74;20125;-53
2023/02/27 02:13:58;;;;;;;;;;;;;;;12.09;35.02;101646.52;1954482;72;20146;-53
2023/02/27 02:16:30;;;;;;;;;;;;;;;12.26;34.38;101649.48;1955238;73;20239;-53
2023/02/27 02:19:12;;;;;;;;;;;;;;;12.54;34.18;101653.87;1954833;73;20185;-51
2023/02/27 02:21:44;;;;;;;;;;;;;;;12.62;34.22;101653.19;1955782;72;20155;-52
2023/02/27 02:24:27;;;;;;;;;;;;;;;12.75;34.00;101657.61;1941778;72;20110;-52
2023/02/27 02:27:05;;;;;;;;;;;;;;;12.88;33.78;101656.27;1993814;71;20173;-49
2023/02/27 02:29:40;;;;;;;;;;;;;;;13.09;32.80;101650.69;1993384;72;20098;-49
2023/02/27 02:32:13;;;;;;;;;;;;;;;13.30;32.88;101646.47;1973678;72;20214;-48
2023/02/27 02:34:51;;;;;;;;;;;;;;;13.36;32.47;101648.03;1965165;73;20108;-49
2023/02/27 02:37:27;;;;;;;;;;;;;;;13.40;32.80;101649.63;1962677;71;20116;-51
2023/02/27 02:40:03;;;;;;;;;;;;;;;13.39;32.66;101653.22;1983587;72;20105;-52
2023/02/27 02:42:35;;;;;;;;;;;;;;;13.47;32.49;101652.46;1966938;72;20198;-54
2023/02/27 02:45:13;;;;;;;;;;;;;;;13.60;31.67;101655.52;1950383;73;20150;-51
2023/02/27 02:47:45;;;;;;;;;;;;;;;13.68;31.44;101656.55;1950652;74;20143;-49
2023/02/27 02:50:24;;;;;;;;;;;;;;;13.72;31.14;101647.57;1949403;73;20100;-54
2023/02/27 02:52:53;;;;;;;;;;;;;;;13.84;31.29;101641.82;1950803;73;20188;-53
2023/02/27 02:55:26;;;;;;;;;;;;;;;13.88;31.42;101648.72;1950610;72;20146;-54
2023/02/27 02:57:58;;;;;;;;;;;;;;;13.92;30.75;101635.38;1964998;72;20112;-49
2023/02/27 03:00:27;;;;;;;;;;;;;;;14.13;30.26;101657.48;1965257;73;20159;-48
2023/02/27 03:02:58;;;;;;;;;;;;;;;14.20;30.50;101655.89;1962337;72;20156;-48
2023/02/27 03:05:30;;;;;;;;;;;;;;;14.24;30.20;101650.86;1959285;73;20123;-54
2023/02/27 03:08:01;;;;;;;;;;;;;;;14.33;29.62;101659.35;1959228;73;20401;-51
2023/02/27 03:10:47;;;;;;;;;;;;;;;14.44;29.71;101656.69;1959425;73;20162;-59
2023/02/27 03:13:20;;;;;;;;;;;;;;;14.46;29.55;101655.31;1951907;72;20295;-59
2023/02/27 03:15:49;;;;;;;;;;;;;;;14.48;29.64;101658.75;1942568;74;20147;-46
2023/02/27 03:18:19;;;;;;;;;;;;;;;14.39;29.72;101656.48;1943428;74;20121;-46
2023/02/27 03:20:48;;;;;;;;;;;;;;;14.39;29.09;101652.50;1945290;73;20117;-49
2023/02/27 03:23:18;;;;;;;;;;;;;;;14.40;29.85;101644.94;1938024;72;20207;-45
2023/02/27 03:25:46;;;;;;;;;;;;;;;14.40;29.27;101644.47;1942408;73;20254;-49
2023/02/27 03:28:15;;;;;;;;;;;;;;;14.47;28.75;101644.62;1928319;74;20605;-48
2023/02/27 03:30:44;;;;;;;;;;;;;;;14.53;28.95;101632.91;1945762;74;20109;-48
2023/02/27 03:33:14;;;;;;;;;;;;;;;14.54;29.26;101635.97;1943587;74;20143;-47
2023/02/27 03:35:43;;;;;;;;;;;;;;;14.52;29.70;101646.24;1944095;74;20112;-51
2023/02/27 03:38:12;;;;;;;;;;;;;;;14.52;29.61;101647.09;1944016;74;20139;-50
2023/02/27 03:40:41;;;;;;;;;;;;;;;14.52;29.58;101644.92;1916246;75;20122;-52
2023/02/27 03:43:29;;;;;;;;;;;;;;;14.47;29.31;101649.06;1922873;74;20120;-55
2023/02/27 03:45:58;;;;;;;;;;;;;;;14.42;29.80;101652.36;1871109;77;20155;-60
2023/02/27 03:48:26;;;;;;;;;;;;;;;14.38;29.37;101662.69;1866416;76;20168;-64
2023/02/27 03:50:55;;;;;;;;;;;;;;;14.40;28.85;101648.91;1882271;74;20105;-62
2023/02/27 03:53:24;;;;;;;;;;;;;;;14.42;29.39;101653.69;1926404;73;20112;-54
2023/02/27 03:55:53;;;;;;;;;;;;;;;14.39;29.62;101657.80;1948217;73;20199;-46
2023/02/27 03:58:21;;;;;;;;;;;;;;;14.42;29.39;101657.66;1942837;74;20382;-57
2023/02/27 04:00:51;;;;;;;;;;;;;;;14.44;29.62;101653.16;1943226;74;20113;-52
2023/02/27 04:03:19;;;;;;;;;;;;;;;14.43;29.45;101660.72;1942780;74;20100;-58
2023/02/27 04:05:47;;;;;;;;;;;;;;;14.44;29.47;101655.36;1915754;74;20130;-57
2023/02/27 04:08:17;;;;;;;;;;;;;;;14.47;29.19;101654.36;1915931;75;20127;-60
2023/02/27 04:10:59;;;;;;;;;;;;;;;14.46;29.26;101654.84;1914389;75;20118;-59
2023/02/27 04:13:31;;;;;;;;;;;;;;;14.48;29.20;101662.73;1916756;74;20119;-57
2023/02/27 04:16:17;;;;;;;;;;;;;;;14.49;28.95;101655.16;1924469;74;20121;-56
2023/02/27 04:18:51;;;;;;;;;;;;;;;14.53;28.62;101656.75;1948051;74;20112;-56
2023/02/27 04:21:23;;;;;;;;;;;;;;;14.63;28.74;101650.20;1947692;74;20121;-56
2023/02/27 04:23:58;;;;;;;;;;;;;;;14.67;28.85;101650.45;1947400;73;20113;-49
2023/02/27 04:26:27;;;;;;;;;;;;;;;14.67;28.83;101654.44;1947196;74;20167;-55
2023/02/27 04:29:03;;;;;;;;;;;;;;;14.71;28.91;101662.27;1947899;74;20176;-55
2023/02/27 04:31:32;;;;;;;;;;;;;;;14.75;28.69;101664.72;1947132;74;20146;-55
2023/02/27 04:34:01;;;;;;;;;;;;;;;14.79;28.68;101664.13;1947130;74;20112;-56
2023/02/27 04:36:33;;;;;;;;;;;;;;;14.86;28.50;101676.20;1947620;74;20117;-50
2023/02/27 04:39:08;;;;;;;;;;;;;;;14.94;28.62;101669.23;1947622;74;20112;-51
2023/02/27 04:41:43;;;;;;;;;;;;;;;15.03;28.78;101682.11;1948032;74;20410;-55
2023/02/27 04:44:12;;;;;;;;;;;;;;;15.16;28.36;101683.33;1936629;74;20113;-52
2023/02/27 04:46:41;;;;;;;;;;;;;;;15.30;28.30;101684.04;1947840;74;20121;-50
2023/02/27 04:49:11;;;;;;;;;;;;;;;15.47;27.76;101683.77;1947917;74;20146;-47
2023/02/27 04:51:40;;;;;;;;;;;;;;;15.62;27.74;101691.03;1947763;74;20143;-55
2023/02/27 04:54:09;;;;;;;;;;;;;;;15.72;27.68;101693.67;1961852;73;20158;-60
2023/02/27 04:56:38;;;;;;;;;;;;;;;15.82;27.68;101694.14;1969073;72;20110;-55
2023/02/27 04:59:07;;;;;;;;;;;;;;;15.94;27.30;101698.89;1949992;73;20160;-56
2023/02/27 05:01:40;;;;;;;;;;;;;;;16.07;27.39;101699.67;1944837;74;20117;-57
2023/02/27 05:04:09;;;;;;;;;;;;;;;16.23;27.04;101702.00;1951848;73;20143;-53
2023/02/27 05:06:38;;;;;;;;;;;;;;;16.39;26.77;101706.09;1954996;73;20142;-53
2023/02/27 05:09:07;;;;;;;;;;;;;;;16.50;26.66;101703.77;1955262;73;20405;-53
2023/02/27 05:11:46;;;;;;;;;;;;;;;16.60;26.55;101702.88;1954626;72;20116;-52
2023/02/27 05:14:18;;;;;;;;;;;;;;;16.67;26.38;101707.41;1954523;73;20147;-56
2023/02/27 05:16:50;;;;;;;;;;;;;;;16.75;25.99;101710.56;1986265;72;20188;-44
2023/02/27 05:19:19;;;;;;;;;;;;;;;16.85;25.91;101697.22;1977181;72;20147;-45
2023/02/27 05:21:52;;;;;;;;;;;;;;;16.96;25.38;101703.33;1953219;72;20382;-46
2023/02/27 05:24:21;;;;;;;;;;;;;;;17.11;25.75;101707.01;1954605;72;20100;-45
2023/02/27 05:26:53;;;;;;;;;;;;;;;17.22;25.59;101707.80;1954998;72;20100;-45
2023/02/27 05:29:23;;;;;;;;;;;;;;;17.27;25.18;101709.75;1955229;73;21120;-46
2023/02/27 05:32:03;;;;;;;;;;;;;;;17.36;25.73;101709.28;1963178;72;20144;-50
2023/02/27 05:34:36;;;;;;;;;;;;;;;17.42;25.46;101716.08;1975464;72;20100;-49
2023/02/27 05:37:25;;;;;;;;;;;;;;;17.47;24.75;101706.05;1930122;73;20456;-50
2023/02/27 05:39:53;;;;;;;;;;;;;;;17.57;24.69;101723.25;1894226;73;20128;-48
2023/02/27 05:42:28;;;;;;;;;;;;;;;17.72;24.83;101727.78;1951605;73;20109;-45
2023/02/27 05:45:00;;;;;;;;;;;;;;;17.88;24.56;101727.83;1950446;73;20144;-45
2023/02/27 05:47:29;;;;;;;;;;;;;;;18.03;24.98;101716.80;1948272;73;20211;-47
2023/02/27 05:49:58;;;;;;;;;;;;;;;18.07;24.08;101726.34;1947010;73;20210;-45
2023/02/27 05:52:27;;;;;;;;;;;;;;;18.19;24.30;101726.16;1950030;73;20175;-52
2023/02/27 05:55:02;;;;;;;;;;;;;;;18.32;24.13;101733.00;1953044;73;20359;-51
2023/02/27 05:57:37;;;;;;;;;;;;;;;18.39;24.06;101723.72;1956347;72;20100;-51
2023/02/27 06:00:19;;;;;;;;;;;;;;;18.64;24.30;101731.16;1958264;72;20139;-51
2023/02/27 06:02:47;;;;;;;;;;;;;;;18.90;23.43;101731.05;1946513;74;20148;-50
2023/02/27 06:05:16;;;;;;;;;;;;;;;18.88;23.96;101730.25;1947921;74;20113;-50
2023/02/27 06:07:44;;;;;;;;;;;;;;;18.73;24.22;101732.45;1948074;74;20363;-50
2023/02/27 06:10:13;;;;;;;;;;;;;;;18.54;23.91;101738.47;1947972;74;20409;-52
2023/02/27 06:12:41;;;;;;;;;;;;;;;18.37;24.38;101725.61;1952207;73;20143;-52
2023/02/27 06:15:09;;;;;;;;;;;;;;;18.37;24.75;101736.73;1968365;73;20124;-51
2023/02/27 06:17:37;;;;;;;;;;;;;;;18.43;24.08;101739.08;1972011;72;20166;-52
2023/02/27 06:20:06;;;;;;;;;;;;;;;18.66;24.04;101735.94;1972310;73;20342;-48
2023/02/27 06:22:34;;;;;;;;;;;;;;;19.05;24.03;101729.73;1961436;72;20164;-50
2023/02/27 06:25:02;;;;;;;;;;;;;;;19.38;23.57;101729.53;1926385;74;20145;-49
2023/02/27 06:27:30;;;;;;;;;;;;;;;19.79;23.72;101731.98;1926284;74;20114;-51
2023/02/27 06:29:57;;;;;;;;;;;;;;;20.04;23.13;101733.98;1926617;73;20141;-48
2023/02/27 06:32:25;;;;;;;;;;;;;;;20.15;23.12;101738.66;1942469;73;20167;-48
2023/02/27 06:34:53;;;;;;;;;;;;;;;20.24;23.07;101726.03;1954830;72;20216;-49
2023/02/27 06:37:21;;;;;;;;;;;;;;;20.21;22.96;101735.13;1945293;73;20115;-48
2023/02/27 06:39:49;;;;;;;;;;;;;;;20.01;22.65;101724.81;1956490;73;20141;-48
2023/02/27 06:42:17;;;;;;;;;;;;;;;20.28;22.67;101723.53;1939796;73;20173;-47
2023/02/27 06:44:44;;;;;;;;;;;;;;;20.78;22.42;101724.73;1940543;73;20102;-47
2023/02/27 06:47:12;;;;;;;;;;;;;;;21.32;22.27;101693.45;1926211;73;20111;-48
2023/02/27 06:49:40;;;;;;;;;;;;;;;21.63;21.39;101714.13;1945493;73;20154;-48
2023/02/27 06:52:08;;;;;;;;;;;;;;;21.82;21.30;101710.53;1933205;73;20110;-45
2023/02/27 06:54:36;;;;;;;;;;;;;;;22.06;20.91;101713.27;1946379;71;20116;-48
2023/02/27 06:57:04;;;;;;;;;;;;;;;22.28;21.72;101704.55;1940741;73;20167;-52
2023/02/27 06:59:32;;;;;;;;;;;;;;;22.36;20.63;101707.52;1939997;73;20228;-49
2023/02/27 07:01:59;;;;;;;;;;;;;;;22.28;20.32;101717.97;1949251;73;20108;-47
2023/02/27 07:04:27;;;;;;;;;;;;;;;22.33;20.40;101717.12;1951202;73;20204;-47
2023/02/27 07:06:55;;;;;;;;;;;;;;;22.43;20.94;101721.81;1946507;72;20142;-47
2023/02/27 07:09:22;;;;;;;;;;;;;;;22.45;20.59;101709.16;1939365;73;20114;-47
2023/02/27 07:11:50;;;;;;;;;;;;;;;22.58;20.43;101689.83;1944709;73;20448;-52
2023/02/27 07:14:18;;;;;;;;;;;;;;;22.66;20.51;101700.83;1931182;73;20165;-56
2023/02/27 07:16:49;;;;;;;;;;;;;;;23.07;20.90;101688.82;1959637;73;20155;-45
2023/02/27 07:19:15;;;;;;;;;;;;;;;23.59;20.40;101685.69;1964571;73;20264;-49
2023/02/27 07:21:43;;;;;;;;;;;;;;;23.79;19.97;101702.50;1964380;73;20519;-47
2023/02/27 07:24:10;;;;;;;;;;;;;;;23.84;19.32;101696.23;1966024;73;20167;-48
2023/02/27 07:26:39;;;;;;;;;;;;;;;23.82;19.11;101704.92;1963160;73;20143;-48
2023/02/27 07:29:06;;;;;;;;;;;;;;;23.83;19.28;101699.92;1961392;73;20194;-48
2023/02/27 07:31:34;;;;;;;;;;;;;;;23.97;19.40;101689.38;1963692;73;20146;-46
2023/02/27 07:34:02;;;;;;;;;;;;;;;24.16;19.28;101696.83;1967378;73;20100;-50
2023/02/27 07:36:30;;;;;;;;;;;;;;;24.51;19.07;101691.69;1962190;73;20108;-47
2023/02/27 07:38:58;;;;;;;;;;;;;;;24.98;19.59;101685.52;1963720;72;20285;-45
2023/02/27 07:41:26;;;;;;;;;;;;;;;25.27;18.87;101688.95;1965010;73;20151;-45
2023/02/27 07:43:54;;;;;;;;;;;;;;;25.62;18.84;101707.94;1957824;73;20100;-45
2023/02/27 07:46:22;;;;;;;;;;;;;;;25.56;18.51;101703.06;1957885;73;20108;-48
2023/02/27 07:48:50;;;;;;;;;;;;;;;25.50;17.78;101695.52;1957730;73;20401;-47
2023/02/27 07:51:18;;;;;;;;;;;;;;;25.47;17.92;101667.47;1957789;73;20148;-47
2023/02/27 07:53:46;;;;;;;;;;;;;;;25.86;18.38;101683.80;1958383;73;20116;-46
2023/02/27 07:56:13;;;;;;;;;;;;;;;26.17;18.28;101687.32;1960666;72;20096;-46
2023/02/27 07:58:41;;;;;;;;;;;;;;;26.41;17.55;101665.33;1965240;73;20135;-46
2023/02/27 08:01:09;;;;;;;;;;;;;;;26.45;17.34;101668.59;1965300;73;20154;-47
2023/02/27 08:03:37;;;;;;;;;;;;;;;26.44;17.26;101661.52;1965170;73;20249;-48
2023/02/27 08:06:05;;;;;;;;;;;;;;;26.30;17.23;101664.11;1968917;73;20149;-47
2023/02/27 08:08:32;;;;;;;;;;;;;;;26.42;17.13;101657.59;1972143;73;20112;-47
2023/02/27 08:11:00;;;;;;;;;;;;;;;26.79;17.48;101649.31;1972177;73;20115;-47
2023/02/27 08:13:28;;;;;;;;;;;;;;;26.99;16.68;101661.79;1972221;73;20111;-48
2023/02/27 08:15:56;;;;;;;;;;;;;;;26.86;16.56;101658.55;1968957;72;20120;-48
2023/02/27 08:18:24;;;;;;;;;;;;;;;26.69;16.81;101655.58;1965157;73;20112;-49
2023/02/27 08:20:53;;;;;;;;;;;;;;;26.63;16.58;101656.13;1965420;72;20127;-49
2023/02/27 08:23:21;;;;;;;;;;;;;;;26.42;16.90;101667.55;1965168;73;20108;-49
2023/02/27 08:25:49;;;;;;;;;;;;;;;26.18;16.74;101679.09;1958271;73;20163;-48
2023/02/27 08:28:17;;;;;;;;;;;;;;;25.95;17.18;101677.61;1950483;73;20104;-48
2023/02/27 08:30:44;;;;;;;;;;;;;;;26.00;17.40;101672.66;1950574;73;20104;-50
2023/02/27 08:33:12;;;;;;;;;;;;;;;26.05;17.01;101651.52;1950820;74;20112;-51
2023/02/27 08:35:40;;;;;;;;;;;;;;;25.92;17.33;101661.22;1946214;73;20111;-49
2023/02/27 08:38:08;;;;;;;;;;;;;;;26.06;17.56;101662.68;1919497;75;20114;-51
2023/02/27 08:40:36;;;;;;;;;;;;;;;26.02;17.22;101661.23;1919433;75;20106;-45
2023/02/27 08:43:04;;;;;;;;;;;;;;;26.12;17.19;101672.91;1921873;73;20142;-46
2023/02/27 08:45:31;;;;;;;;;;;;;;;26.15;17.38;101656.45;1955197;73;20116;-46
2023/02/27 08:47:59;;;;;;;;;;;;;;;26.39;17.35;101656.52;1955278;73;20437;-47
2023/02/27 08:50:27;;;;;;;;;;;;;;;26.68;16.92;101658.41;1955134;73;20116;-50
2023/02/27 08:52:54;;;;;;;;;;;;;;;26.99;17.14;101658.24;1950634;73;20104;-51
2023/02/27 08:55:22;;;;;;;;;;;;;;;27.42;16.90;101655.51;1950480;74;20104;-52
2023/02/27 08:57:50;;;;;;;;;;;;;;;27.29;16.53;101651.27;1950560;73;20109;-54
2023/02/27 09:00:18;;;;;;;;;;;;;;;27.26;16.87;101644.83;1950585;73;20116;-47
2023/02/27 09:02:46;;;;;;;;;;;;;;;27.20;16.69;101656.18;1950861;73;20112;-44
2023/02/27 09:05:14;;;;;;;;;;;;;;;27.07;16.66;101636.73;1959291;73;20116;-49
2023/02/27 09:07:42;;;;;;;;;;;;;;;27.32;16.88;101650.98;1938475;73;20106;-55
2023/02/27 09:10:11;;;;;;;;;;;;;;;27.53;16.74;101647.20;1919367;75;20110;-57
2023/02/27 09:12:39;;;;;;;;;;;;;;;27.33;16.69;101655.41;1919557;75;20431;-54
2023/02/27 09:15:07;;;;;;;;;;;;;;;26.80;16.91;101653.70;1919418;75;20190;-55
2023/02/27 09:17:35;;;;;;;;;;;;;;;26.87;17.17;101654.36;1926194;73;20422;-53
2023/02/27 09:20:03;;;;;;;;;;;;;;;26.76;17.28;101656.71;1971961;72;20118;-52
2023/02/27 09:22:31;;;;;;;;;;;;;;;26.63;17.68;101643.97;2001133;72;20097;-57
2023/02/27 09:24:59;;;;;;;;;;;;;;;26.92;17.60;101651.20;2001457;72;20165;-56
2023/02/27 09:27:27;;;;;;;;;;;;;;;26.87;17.55;101654.36;2001154;71;20109;-46
2023/02/27 09:29:55;;;;;;;;;;;;;;;26.87;17.52;101626.45;2001255;72;20118;-45
2023/02/27 09:32:23;;;;;;;;;;;;;;;26.64;17.78;101636.74;2001196;72;20114;-45
2023/02/27 09:34:51;;;;;;;;;;;;;;;26.45;17.87;101638.90;2001245;72;20113;-44
2023/02/27 09:37:18;;;;;;;;;;;;;;;26.03;18.23;101645.91;2001145;72;20165;-44
2023/02/27 09:39:47;;;;;;;;;;;;;;;26.36;18.26;101664.92;2001278;72;20108;-45
2023/02/27 09:42:17;;;;;;;;;;;;;;;26.31;18.31;101650.48;2001216;72;20118;-56
2023/02/27 09:44:50;;;;;;;;;;;;;;;26.61;18.31;101649.17;1976796;72;20355;-56
2023/02/27 09:47:19;;;;;;;;;;;;;;;26.74;17.95;101647.02;1995114;72;20142;-51
2023/02/27 09:50:00;;;;;;;;;;;;;;;27.02;18.23;101649.83;2004939;72;20384;-54
2023/02/27 09:52:29;;;;;;;;;;;;;;;27.33;17.98;101641.89;2005018;72;20140;-55
2023/02/27 09:54:57;;;;;;;;;;;;;;;27.35;17.94;101640.36;2005050;72;20101;-59
2023/02/27 09:57:30;;;;;;;;;;;;;;;27.45;17.84;101637.14;1967101;72;20108;-58
2023/02/27 09:59:59;;;;;;;;;;;;;;;27.19;18.07;101639.63;1965181;73;20116;-57
2023/02/27 10:02:34;;;;;;;;;;;;;;;26.99;18.28;101640.17;1964802;72;20191;-57
2023/02/27 10:05:20;;;;;;;;;;;;;;;26.58;18.59;101625.48;1961320;72;20112;-54
2023/02/27 10:07:50;;;;;;;;;;;;;;;26.85;18.53;101630.66;1982144;72;20148;-54
2023/02/27 10:10:31;;;;;;;;;;;;;;;27.14;18.50;101635.15;1945681;72;20114;-54
2023/02/27 10:13:00;;;;;;;;;;;;;;;27.37;18.39;101629.41;1956239;72;20112;-52
2023/02/27 10:15:30;;;;;;;;;;;;;;;27.34;18.27;101615.19;1963742;73;20142;-57
2023/02/27 10:18:11;;;;;;;;;;;;;;;27.20;18.33;101620.19;1955448;73;20121;-58
2023/02/27 10:20:40;;;;;;;;;;;;;;;26.98;18.36;101624.09;1950734;74;20131;-57
2023/02/27 10:23:15;;;;;;;;;;;;;;;26.57;18.64;101608.91;1949177;73;20108;-57
2023/02/27 10:25:47;;;;;;;;;;;;;;;26.02;19.05;101635.59;1971701;72;20106;-57
2023/02/27 10:28:16;;;;;;;;;;;;;;;25.58;19.48;101626.92;1994051;72;20133;-60
2023/02/27 10:30:46;;;;;;;;;;;;;;;25.02;20.00;101627.69;1994580;72;20106;-58
2023/02/27 10:33:15;;;;;;;;;;;;;;;24.78;20.33;101623.08;1979139;72;20215;-57
2023/02/27 10:35:44;;;;;;;;;;;;;;;24.61;20.53;101622.67;1955664;72;20116;-57
2023/02/27 10:38:14;;;;;;;;;;;;;;;24.29;20.90;101628.06;1955051;73;20382;-56
2023/02/27 10:40:42;;;;;;;;;;;;;;;24.01;21.22;101609.29;1955129;73;20119;-46
2023/02/27 10:43:11;;;;;;;;;;;;;;;23.54;21.65;101612.66;1978295;72;20129;-47
2023/02/27 10:45:39;;;;;;;;;;;;;;;23.56;21.90;101611.54;1992780;72;20149;-48
2023/02/27 10:48:07;;;;;;;;;;;;;;;23.64;21.99;101628.39;1953530;73;20142;-50
2023/02/27 10:50:36;;;;;;;;;;;;;;;23.63;22.10;101624.01;1953857;73;20342;-48
2023/02/27 10:53:05;;;;;;;;;;;;;;;23.52;22.13;101634.27;1953803;73;20113;-50
2023/02/27 10:55:34;;;;;;;;;;;;;;;23.47;22.35;101626.56;1953905;73;20108;-49
2023/02/27 10:58:02;;;;;;;;;;;;;;;23.55;22.25;101617.03;1955081;73;20383;-48
2023/02/27 11:00:33;;;;;;;;;;;;;;;23.17;22.53;101633.04;1954961;73;20154;-50
2023/02/27 11:03:01;;;;;;;;;;;;;;;22.65;22.85;101629.34;1955207;73;20158;-49
2023/02/27 11:05:31;;;;;;;;;;;;;;;22.18;23.45;101641.77;1956031;72;20197;-48
2023/02/27 11:08:18;;;;;;;;;;;;;;;21.89;23.79;101627.81;1956132;72;20152;-50
2023/02/27 11:10:53;;;;;;;;;;;;;;;21.52;24.08;101625.11;1952748;72;20107;-56
2023/02/27 11:13:22;;;;;;;;;;;;;;;21.21;24.45;101642.00;1976158;72;20223;-56
2023/02/27 11:16:03;;;;;;;;;;;;;;;20.96;24.79;101641.48;1981352;72;20181;-50
2023/02/27 11:18:32;;;;;;;;;;;;;;;20.73;24.79;101647.05;1989952;71;20114;-47
2023/02/27 11:21:07;;;;;;;;;;;;;;;20.61;25.04;101635.38;1994080;72;20153;-51
2023/02/27 11:23:35;;;;;;;;;;;;;;;20.66;25.02;101645.30;1962097;73;20386;-45
2023/02/27 11:26:05;;;;;;;;;;;;;;;20.73;25.06;101642.59;1963507;73;20115;-51
2023/02/27 11:28:32;;;;;;;;;;;;;;;20.62;25.11;101657.17;1962394;73;20115;-51
2023/02/27 11:31:08;;;;;;;;;;;;;;;20.58;25.13;101654.27;1963512;73;20116;-50
2023/02/27 11:33:37;;;;;;;;;;;;;;;20.52;25.14;101646.66;1951804;72;20155;-56
2023/02/27 11:36:05;;;;;;;;;;;;;;;20.53;25.29;101671.98;1963354;73;20150;-56
2023/02/27 11:38:33;;;;;;;;;;;;;;;20.47;25.38;101664.83;1963385;73;20523;-58
2023/02/27 11:41:05;;;;;;;;;;;;;;;20.29;25.46;101663.76;1963456;73;20116;-46
2023/02/27 11:43:35;;;;;;;;;;;;;;;20.14;25.66;101670.08;1963504;73;20339;-48
2023/02/27 11:46:04;;;;;;;;;;;;;;;19.92;25.86;101672.82;1963563;73;20115;-57
2023/02/27 11:48:33;;;;;;;;;;;;;;;19.80;26.12;101670.91;1962612;73;20150;-56
2023/02/27 11:51:11;;;;;;;;;;;;;;;19.71;26.31;101686.16;1958831;73;20406;-49
2023/02/27 11:53:47;;;;;;;;;;;;;;;19.68;26.45;101684.55;1959300;73;20150;-52
2023/02/27 11:56:16;;;;;;;;;;;;;;;19.59;26.61;101685.97;1980955;72;20110;-57
2023/02/27 11:58:57;;;;;;;;;;;;;;;19.54;26.74;101699.23;2001174;72;20102;-57
2023/02/27 12:01:26;;;;;;;;;;;;;;;19.42;27.01;101704.83;1981220;72;20154;-57
2023/02/27 12:04:12;;;;;;;;;;;;;;;19.31;27.25;101701.95;1965271;73;20116;-57
2023/02/27 12:06:41;;;;;;;;;;;;;;;19.19;27.48;101688.41;1965213;73;20668;-57
2023/02/27 12:09:23;;;;;;;;;;;;;;;19.13;27.59;101711.47;1965008;71;20108;-57
2023/02/27 12:11:52;;;;;;;;;;;;;;;19.09;27.75;101701.45;1964024;72;20120;-57
2023/02/27 12:14:24;;;;;;;;;;;;;;;19.13;27.78;101680.77;1965100;73;20119;-57
2023/02/27 12:16:56;;;;;;;;;;;;;;;19.09;27.94;101708.61;1965038;71;20099;-57
2023/02/27 12:19:32;;;;;;;;;;;;;;;19.02;28.10;101704.59;1953643;72;20112;-57
2023/02/27 12:22:01;;;;;;;;;;;;;;;19.01;28.22;101702.85;1964846;71;20103;-57
2023/02/27 12:24:30;;;;;;;;;;;;;;;19.03;28.33;101708.95;1964944;73;20104;-57
2023/02/27 12:26:59;;;;;;;;;;;;;;;18.98;28.43;101711.03;1965002;73;20115;-57
2023/02/27 12:29:38;;;;;;;;;;;;;;;18.96;28.51;101712.93;1963522;73;20149;-57
2023/02/27 12:32:23;;;;;;;;;;;;;;;18.94;28.52;101718.39;1963038;73;20146;-57
2023/02/27 12:34:58;;;;;;;;;;;;;;;18.92;28.66;101719.41;1965124;73;20142;-57
2023/02/27 12:37:32;;;;;;;;;;;;;;;18.97;28.68;101725.34;1961988;73;20128;-56
2023/02/27 12:40:01;;;;;;;;;;;;;;;19.04;28.64;101727.55;1965281;73;20166;-56
2023/02/27 12:42:39;;;;;;;;;;;;;;;19.09;28.64;101732.64;1965244;73;20366;-56
2023/02/27 12:45:08;;;;;;;;;;;;;;;19.12;28.81;101730.25;1964898;73;20100;-56
2023/02/27 12:47:53;;;;;;;;;;;;;;;19.14;28.93;101729.67;1965120;73;20096;-56
2023/02/27 12:50:22;;;;;;;;;;;;;;;19.12;29.07;101729.77;1965087;73;20197;-57